Time;durP1;ratioP1;P1;durP2;ratioP2;P2;SDS_P1;SDS_P2;PMS_P1;PMS_P2;Temp;Humidity;BMP_temperature;BMP_pressure;BME280_temperature;BME280_humidity;BME280_pressure;Samples;Min_cycle;Max_cycle;Signal;HPM_P1;HPM_P2
2022/03/06 00:01:05;;;;;;;1.40;0.98;;;1.20;99.90;;;;;;4982178;28;20033;-72
2022/03/06 00:03:31;;;;;;;1.30;0.50;;;1.10;99.90;;;;;;4978512;28;20034;-72
2022/03/06 00:05:56;;;;;;;0.43;0.43;;;1.10;99.90;;;;;;4996349;28;20454;-72
2022/03/06 00:08:22;;;;;;;0.20;0.20;;;1.10;99.90;;;;;;4984182;28;20042;-72
2022/03/06 00:10:48;;;;;;;0.40;0.25;;;1.10;99.90;;;;;;4968455;28;20050;-72
2022/03/06 00:13:14;;;;;;;0.50;0.40;;;1.10;99.90;;;;;;4985060;28;20083;-72
2022/03/06 00:15:43;;;;;;;1.40;1.30;;;1.10;99.90;;;;;;4999025;28;20132;-72
2022/03/06 00:18:09;;;;;;;0.63;0.45;;;1.00;99.90;;;;;;4994455;28;20034;-73
2022/03/06 00:20:36;;;;;;;0.20;0.20;;;1.10;99.90;;;;;;4994558;28;20129;-72
2022/03/06 00:23:03;;;;;;;0.28;0.28;;;1.00;99.90;;;;;;5011933;28;20033;-72
2022/03/06 00:25:28;;;;;;;0.30;0.25;;;1.00;99.90;;;;;;4975584;28;20199;-72
2022/03/06 00:27:54;;;;;;;2.55;0.95;;;1.00;99.90;;;;;;4975490;28;20487;-72
2022/03/06 00:30:19;;;;;;;0.90;0.38;;;1.00;99.90;;;;;;4995329;28;20068;-72
2022/03/06 00:32:45;;;;;;;1.33;0.38;;;1.00;99.90;;;;;;4993792;28;20450;-72
2022/03/06 00:35:11;;;;;;;0.28;0.28;;;1.00;99.90;;;;;;4997884;28;20044;-72
2022/03/06 00:37:37;;;;;;;0.98;0.73;;;1.00;99.90;;;;;;4998703;28;20056;-72
2022/03/06 00:40:05;;;;;;;0.50;0.50;;;1.00;99.90;;;;;;4974601;28;20749;-72
2022/03/06 00:42:30;;;;;;;0.35;0.35;;;1.00;99.90;;;;;;4980435;28;20084;-72
2022/03/06 00:44:56;;;;;;;0.20;0.20;;;1.00;99.90;;;;;;4999310;28;20061;-72
2022/03/06 00:47:21;;;;;;;1.40;0.47;;;1.00;99.90;;;;;;5001197;28;20517;-72
2022/03/06 00:49:47;;;;;;;0.32;0.22;;;1.00;99.90;;;;;;4981178;28;20065;-72
2022/03/06 00:52:13;;;;;;;0.22;0.20;;;1.00;99.90;;;;;;4992011;28;20128;-72
2022/03/06 00:54:39;;;;;;;0.30;0.30;;;1.10;99.90;;;;;;4983944;28;20047;-72
2022/03/06 00:57:04;;;;;;;0.75;0.45;;;1.00;99.90;;;;;;4976925;28;20042;-72
2022/03/06 00:59:34;;;;;;;1.15;0.40;;;1.10;99.90;;;;;;4980873;28;20416;-72
2022/03/06 01:02:04;;;;;;;1.15;0.68;;;1.10;99.90;;;;;;4976751;28;20780;-72
2022/03/06 01:04:30;;;;;;;0.52;0.52;;;1.10;99.90;;;;;;4994445;28;20135;-72
2022/03/06 01:06:56;;;;;;;1.25;0.55;;;1.10;99.90;;;;;;4980394;28;20049;-72
2022/03/06 01:09:21;;;;;;;0.60;0.60;;;1.10;99.90;;;;;;4996936;28;20373;-72
2022/03/06 01:11:47;;;;;;;1.48;0.70;;;1.10;99.90;;;;;;4998042;28;20037;-72
2022/03/06 01:14:13;;;;;;;0.40;0.30;;;1.10;99.90;;;;;;4998344;28;20048;-72
2022/03/06 01:16:38;;;;;;;1.05;0.95;;;1.20;99.90;;;;;;4996301;28;20462;-72
2022/03/06 01:19:04;;;;;;;0.52;0.38;;;1.20;99.90;;;;;;4999472;28;20088;-72
2022/03/06 01:21:30;;;;;;;0.32;0.15;;;1.10;99.90;;;;;;4991201;28;20034;-72
2022/03/06 01:23:55;;;;;;;1.60;0.80;;;1.20;99.90;;;;;;4982073;28;20092;-72
2022/03/06 01:26:21;;;;;;;0.25;0.20;;;1.20;99.90;;;;;;4995832;28;20771;-72
2022/03/06 01:28:46;;;;;;;0.30;0.15;;;1.20;99.90;;;;;;4979129;28;20120;-72
2022/03/06 01:31:12;;;;;;;0.57;0.32;;;1.20;99.90;;;;;;4993066;28;20052;-72
2022/03/06 01:33:38;;;;;;;0.75;0.57;;;1.20;99.90;;;;;;4992177;28;20058;-72
2022/03/06 01:36:04;;;;;;;0.65;0.65;;;1.20;99.90;;;;;;4999572;28;20449;-72
2022/03/06 01:38:29;;;;;;;0.10;0.10;;;1.30;99.90;;;;;;5006038;28;20034;-72
2022/03/06 01:40:55;;;;;;;0.10;0.10;;;1.20;99.90;;;;;;4991896;28;20041;-72
2022/03/06 01:43:21;;;;;;;0.50;0.20;;;1.30;99.90;;;;;;4970870;28;20093;-72
2022/03/06 01:45:46;;;;;;;0.85;0.40;;;1.20;99.90;;;;;;4978990;28;20126;-72
2022/03/06 01:48:12;;;;;;;0.70;0.20;;;1.20;99.90;;;;;;4998107;28;20046;-72
2022/03/06 01:50:38;;;;;;;0.43;0.43;;;1.20;99.90;;;;;;4976725;28;20050;-72
2022/03/06 01:53:07;;;;;;;0.30;0.30;;;1.20;99.90;;;;;;4976704;28;20491;-72
2022/03/06 01:55:33;;;;;;;3.35;0.50;;;1.20;99.90;;;;;;4980110;28;20132;-72
2022/03/06 01:58:02;;;;;;;0.85;0.75;;;1.30;99.90;;;;;;4988313;28;20037;-72
2022/03/06 02:00:30;;;;;;;0.30;0.30;;;1.30;99.90;;;;;;4976914;28;20034;-72
2022/03/06 02:02:56;;;;;;;0.40;0.40;;;1.30;99.90;;;;;;4978836;28;20044;-72
2022/03/06 02:05:22;;;;;;;1.48;0.63;;;1.30;99.90;;;;;;4991579;28;20046;-72
2022/03/06 02:07:48;;;;;;;0.20;0.20;;;1.30;99.90;;;;;;4991405;28;20044;-72
2022/03/06 02:10:15;;;;;;;5.68;0.85;;;1.30;99.90;;;;;;4975519;28;20034;-72
2022/03/06 02:12:42;;;;;;;0.10;0.10;;;1.30;99.90;;;;;;4959624;28;20535;-72
2022/03/06 02:15:10;;;;;;;0.30;0.30;;;1.30;99.90;;;;;;4980174;28;20042;-72
2022/03/06 02:17:37;;;;;;;1.02;0.75;;;1.30;99.90;;;;;;4979953;28;20046;-72
2022/03/06 02:20:05;;;;;;;0.40;0.40;;;1.40;99.90;;;;;;4966125;28;20041;-72
2022/03/06 02:22:33;;;;;;;0.50;0.50;;;1.40;99.90;;;;;;4992979;28;20038;-72
2022/03/06 02:25:00;;;;;;;0.38;0.38;;;1.40;99.90;;;;;;4978218;28;20041;-72
2022/03/06 02:27:26;;;;;;;0.80;0.63;;;1.40;99.90;;;;;;4993683;28;20579;-72
2022/03/06 02:29:53;;;;;;;1.02;0.55;;;1.40;99.90;;;;;;4981278;28;20120;-72
2022/03/06 02:32:21;;;;;;;0.17;0.17;;;1.40;99.90;;;;;;4990945;28;20504;-72
2022/03/06 02:34:48;;;;;;;0.63;0.57;;;1.40;99.90;;;;;;4981281;28;20081;-72
2022/03/06 02:37:17;;;;;;;0.20;0.20;;;1.40;99.90;;;;;;4995720;28;20038;-72
2022/03/06 02:39:43;;;;;;;0.30;0.20;;;1.40;99.90;;;;;;4976634;28;20128;-72
2022/03/06 02:42:10;;;;;;;2.75;0.45;;;1.40;99.90;;;;;;4994469;28;20080;-72
2022/03/06 02:44:36;;;;;;;1.17;0.75;;;1.40;99.90;;;;;;4992474;28;20531;-72
2022/03/06 02:47:02;;;;;;;0.25;0.25;;;1.40;99.90;;;;;;4974737;28;20045;-72
2022/03/06 02:49:28;;;;;;;1.48;0.85;;;1.40;99.90;;;;;;4995707;28;20034;-72
2022/03/06 02:51:53;;;;;;;0.22;0.20;;;1.40;99.90;;;;;;4995372;28;20088;-72
2022/03/06 02:54:20;;;;;;;0.82;0.68;;;1.40;99.90;;;;;;4993059;28;20033;-72
2022/03/06 02:56:49;;;;;;;0.25;0.20;;;1.40;99.90;;;;;;4970852;28;20034;-72
2022/03/06 02:59:16;;;;;;;0.40;0.35;;;1.40;99.90;;;;;;5002031;28;20034;-72
2022/03/06 03:01:42;;;;;;;0.40;0.30;;;1.40;99.90;;;;;;4995948;28;20487;-72
2022/03/06 03:04:08;;;;;;;0.88;0.63;;;1.40;99.90;;;;;;4985674;28;20033;-72
2022/03/06 03:06:34;;;;;;;0.20;0.20;;;1.40;99.90;;;;;;5000912;28;20093;-72
2022/03/06 03:09:01;;;;;;;1.23;0.88;;;1.40;99.90;;;;;;4982368;28;20917;-72
2022/03/06 03:11:29;;;;;;;0.52;0.47;;;1.30;99.90;;;;;;5000358;28;20406;-72
2022/03/06 03:13:54;;;;;;;4.05;0.45;;;1.40;99.90;;;;;;4996155;28;20042;-72
2022/03/06 03:16:20;;;;;;;0.10;0.10;;;1.30;99.90;;;;;;5003946;28;20220;-72
2022/03/06 03:18:45;;;;;;;0.45;0.35;;;1.30;99.90;;;;;;4979680;28;20121;-72
2022/03/06 03:21:11;;;;;;;0.20;0.20;;;1.30;99.90;;;;;;4999156;28;20068;-72
2022/03/06 03:23:36;;;;;;;0.10;0.10;;;1.20;99.90;;;;;;4977818;28;20087;-72
2022/03/06 03:26:02;;;;;;;0.43;0.40;;;1.20;99.90;;;;;;4993068;28;20065;-72
2022/03/06 03:28:28;;;;;;;0.10;0.10;;;1.10;99.90;;;;;;5001498;28;20097;-72
2022/03/06 03:30:53;;;;;;;0.30;0.30;;;1.10;99.90;;;;;;4998920;28;20044;-72
2022/03/06 03:33:19;;;;;;;1.17;0.75;;;1.10;99.90;;;;;;4999038;28;20085;-72
2022/03/06 03:35:44;;;;;;;0.35;0.35;;;1.10;99.90;;;;;;5000434;28;20495;-72
2022/03/06 03:38:10;;;;;;;0.32;0.22;;;1.10;99.90;;;;;;4984335;28;20056;-72
2022/03/06 03:40:35;;;;;;;0.30;0.25;;;1.10;99.90;;;;;;4988632;28;20068;-72
2022/03/06 03:43:01;;;;;;;0.45;0.40;;;1.10;99.90;;;;;;4994291;28;20073;-73
2022/03/06 03:45:28;;;;;;;0.13;0.13;;;1.10;99.90;;;;;;4994860;28;20407;-72
2022/03/06 03:47:53;;;;;;;2.17;0.52;;;1.10;99.90;;;;;;4982150;28;20044;-72
2022/03/06 03:50:19;;;;;;;0.10;0.10;;;1.00;99.90;;;;;;4996386;28;20119;-73
2022/03/06 03:52:44;;;;;;;0.35;0.20;;;1.00;99.90;;;;;;4994196;28;20026;-72
2022/03/06 03:55:10;;;;;;;0.40;0.40;;;0.90;99.90;;;;;;4996479;28;20072;-72
2022/03/06 03:57:36;;;;;;;1.00;0.32;;;0.90;99.90;;;;;;4995723;28;20049;-72
2022/03/06 04:00:02;;;;;;;0.30;0.30;;;1.00;99.90;;;;;;4998176;28;20033;-72
2022/03/06 04:02:28;;;;;;;0.30;0.30;;;0.90;99.90;;;;;;4983951;28;20030;-73
2022/03/06 04:04:53;;;;;;;0.38;0.38;;;0.90;99.90;;;;;;4997310;28;20581;-72
2022/03/06 04:07:19;;;;;;;3.38;0.85;;;0.90;99.90;;;;;;4980809;28;20443;-72
2022/03/06 04:09:45;;;;;;;0.47;0.22;;;0.80;99.90;;;;;;4991009;28;20042;-72
2022/03/06 04:12:10;;;;;;;0.10;0.10;;;0.80;99.90;;;;;;4981227;28;20499;-72
2022/03/06 04:14:36;;;;;;;0.32;0.30;;;0.80;99.90;;;;;;4994196;28;20049;-72
2022/03/06 04:17:01;;;;;;;0.10;0.10;;;0.80;99.90;;;;;;4972585;28;20064;-72
2022/03/06 04:19:27;;;;;;;1.75;0.82;;;0.80;99.90;;;;;;4981216;28;20539;-72
2022/03/06 04:21:53;;;;;;;0.20;0.20;;;0.80;99.90;;;;;;4982231;28;20596;-72
2022/03/06 04:24:18;;;;;;;0.32;0.32;;;0.80;99.90;;;;;;4979929;28;20455;-72
2022/03/06 04:26:44;;;;;;;0.08;0.08;;;0.70;99.90;;;;;;4990557;28;20038;-72
2022/03/06 04:29:10;;;;;;;0.57;0.52;;;0.70;99.90;;;;;;4997529;28;20050;-72
2022/03/06 04:31:35;;;;;;;0.10;0.10;;;0.70;99.90;;;;;;4992710;28;20050;-72
2022/03/06 04:34:01;;;;;;;0.20;0.20;;;0.70;99.90;;;;;;4997740;28;20153;-73
2022/03/06 04:36:27;;;;;;;0.20;0.20;;;0.70;99.90;;;;;;4996439;28;20112;-72
2022/03/06 04:38:53;;;;;;;0.35;0.35;;;0.70;99.90;;;;;;4997817;28;20040;-72
2022/03/06 04:41:19;;;;;;;0.30;0.30;;;0.70;99.90;;;;;;4991745;28;20089;-73
2022/03/06 04:43:44;;;;;;;0.13;0.13;;;0.70;99.90;;;;;;4987394;28;20468;-72
2022/03/06 04:46:10;;;;;;;0.30;0.30;;;0.70;99.90;;;;;;4979823;28;20076;-73
2022/03/06 04:48:36;;;;;;;0.10;0.10;;;0.70;99.90;;;;;;4994745;28;20037;-72
2022/03/06 04:51:02;;;;;;;0.20;0.20;;;0.70;99.90;;;;;;4994749;28;20038;-72
2022/03/06 04:53:28;;;;;;;1.38;0.63;;;0.70;99.90;;;;;;4976298;28;20065;-73
2022/03/06 04:55:53;;;;;;;1.13;0.65;;;0.70;99.90;;;;;;4973403;28;20073;-72
2022/03/06 04:58:19;;;;;;;0.47;0.47;;;0.70;99.90;;;;;;4998275;28;20121;-72
2022/03/06 05:00:45;;;;;;;0.10;0.10;;;0.70;99.90;;;;;;4998768;28;20037;-72
2022/03/06 05:03:10;;;;;;;0.25;0.25;;;0.60;99.90;;;;;;4996498;28;20476;-72
2022/03/06 05:05:36;;;;;;;0.10;0.10;;;0.70;99.90;;;;;;4998776;28;20599;-72
2022/03/06 05:08:02;;;;;;;0.20;0.20;;;0.70;99.90;;;;;;4994762;28;20095;-72
2022/03/06 05:10:28;;;;;;;0.30;0.30;;;0.70;99.90;;;;;;4992067;28;20089;-72
2022/03/06 05:12:53;;;;;;;0.17;0.17;;;0.70;99.90;;;;;;4996914;28;20042;-72
2022/03/06 05:15:19;;;;;;;0.10;0.10;;;0.70;99.90;;;;;;4997159;28;20037;-72
2022/03/06 05:17:45;;;;;;;0.20;0.20;;;0.70;99.90;;;;;;4973048;28;20041;-72
2022/03/06 05:20:12;;;;;;;0.00;0.00;;;0.70;99.90;;;;;;4996211;28;20088;-72
2022/03/06 05:22:38;;;;;;;0.85;0.68;;;0.70;99.90;;;;;;4989675;28;20398;-72
2022/03/06 05:25:05;;;;;;;0.30;0.30;;;0.70;99.90;;;;;;4993514;28;20040;-72
2022/03/06 05:27:31;;;;;;;0.17;0.13;;;0.70;99.90;;;;;;4993979;28;20091;-73
2022/03/06 05:29:56;;;;;;;0.80;0.20;;;0.70;99.90;;;;;;4976223;28;20041;-72
2022/03/06 05:32:22;;;;;;;0.28;0.25;;;0.60;99.90;;;;;;5000607;28;20099;-72
2022/03/06 05:34:48;;;;;;;0.10;0.10;;;0.70;99.90;;;;;;5001782;28;20056;-73
2022/03/06 05:37:13;;;;;;;0.20;0.20;;;0.70;99.90;;;;;;4991426;28;20069;-72
2022/03/06 05:39:39;;;;;;;0.10;0.10;;;0.60;99.90;;;;;;4990859;28;20038;-72
2022/03/06 05:42:05;;;;;;;0.20;0.20;;;0.60;99.90;;;;;;4997289;28;20068;-72
2022/03/06 05:44:30;;;;;;;0.40;0.28;;;0.60;99.90;;;;;;4992841;28;20057;-72
2022/03/06 05:46:56;;;;;;;0.10;0.10;;;0.60;99.90;;;;;;4996929;28;20038;-72
2022/03/06 05:49:22;;;;;;;0.28;0.28;;;0.60;99.90;;;;;;5000042;28;20096;-72
2022/03/06 05:51:47;;;;;;;0.10;0.10;;;0.60;99.90;;;;;;4996245;28;20037;-72
2022/03/06 05:54:13;;;;;;;0.20;0.20;;;0.60;99.90;;;;;;4981176;28;20053;-72
2022/03/06 05:56:41;;;;;;;0.40;0.40;;;0.60;99.90;;;;;;4998179;28;20038;-73
2022/03/06 05:59:07;;;;;;;0.30;0.30;;;0.60;99.90;;;;;;4977289;28;20061;-72
2022/03/06 06:01:33;;;;;;;0.10;0.10;;;0.60;99.90;;;;;;4976079;28;20076;-72
2022/03/06 06:04:00;;;;;;;0.30;0.20;;;0.50;99.90;;;;;;4977887;28;20033;-72
2022/03/06 06:06:27;;;;;;;0.52;0.30;;;0.60;99.90;;;;;;4973877;28;21670;-72
2022/03/06 06:08:53;;;;;;;0.20;0.20;;;0.50;99.90;;;;;;4992764;28;20123;-72
2022/03/06 06:11:19;;;;;;;0.55;0.55;;;0.60;99.90;;;;;;4995441;28;20581;-72
2022/03/06 06:13:45;;;;;;;0.20;0.20;;;0.60;99.90;;;;;;4995616;28;20075;-72
2022/03/06 06:16:11;;;;;;;0.10;0.10;;;0.60;99.90;;;;;;4976443;28;20049;-72
2022/03/06 06:18:36;;;;;;;0.20;0.20;;;0.60;99.90;;;;;;4967524;28;20062;-72
2022/03/06 06:21:03;;;;;;;0.20;0.20;;;0.50;99.90;;;;;;4976787;28;20064;-72
2022/03/06 06:23:29;;;;;;;0.10;0.10;;;0.50;99.90;;;;;;4982189;28;20088;-72
2022/03/06 06:25:54;;;;;;;0.28;0.25;;;0.50;99.90;;;;;;4979384;28;20034;-72
2022/03/06 06:28:20;;;;;;;0.10;0.10;;;0.50;99.90;;;;;;4980875;28;20034;-72
2022/03/06 06:30:46;;;;;;;1.45;0.38;;;0.50;99.90;;;;;;4993581;28;20038;-72
2022/03/06 06:33:11;;;;;;;0.10;0.10;;;0.60;99.90;;;;;;4984581;28;20057;-72
2022/03/06 06:35:37;;;;;;;0.20;0.20;;;0.60;99.90;;;;;;5000457;28;20053;-72
2022/03/06 06:38:03;;;;;;;0.90;0.30;;;0.60;99.90;;;;;;4992006;28;20041;-72
2022/03/06 06:40:30;;;;;;;0.10;0.10;;;0.60;99.90;;;;;;4976327;28;20037;-72
2022/03/06 06:42:55;;;;;;;0.10;0.10;;;0.60;99.90;;;;;;4979539;28;20040;-72
2022/03/06 06:45:21;;;;;;;2.30;0.52;;;0.60;99.90;;;;;;4993196;28;20034;-72
2022/03/06 06:47:46;;;;;;;0.43;0.32;;;0.60;99.90;;;;;;4975876;28;20038;-73
2022/03/06 06:50:12;;;;;;;0.40;0.40;;;0.60;99.90;;;;;;4996466;28;20050;-72
2022/03/06 06:52:38;;;;;;;0.10;0.10;;;0.60;99.90;;;;;;4974459;28;20046;-72
2022/03/06 06:55:04;;;;;;;0.10;0.10;;;0.60;99.90;;;;;;4995058;28;20037;-72
2022/03/06 06:57:30;;;;;;;0.00;0.00;;;0.60;99.90;;;;;;4996035;28;20116;-72
2022/03/06 06:59:56;;;;;;;0.10;0.10;;;0.60;99.90;;;;;;4993756;28;20081;-73
2022/03/06 07:02:22;;;;;;;0.60;0.60;;;0.70;99.90;;;;;;4993415;28;20432;-72
2022/03/06 07:04:48;;;;;;;0.10;0.10;;;0.70;99.90;;;;;;4981382;28;20123;-72
2022/03/06 07:07:13;;;;;;;0.10;0.10;;;0.70;99.90;;;;;;4991137;28;20045;-72
2022/03/06 07:09:39;;;;;;;0.30;0.30;;;0.70;99.90;;;;;;4977363;28;20041;-72
2022/03/06 07:12:06;;;;;;;0.10;0.10;;;0.70;99.90;;;;;;4979369;28;20120;-72
2022/03/06 07:14:32;;;;;;;0.10;0.10;;;0.70;99.90;;;;;;4978590;28;20533;-72
2022/03/06 07:16:58;;;;;;;0.70;0.40;;;0.70;99.90;;;;;;4993129;28;20045;-72
2022/03/06 07:19:24;;;;;;;0.10;0.10;;;0.80;99.90;;;;;;5007059;28;20407;-72
2022/03/06 07:21:49;;;;;;;0.80;0.20;;;0.80;99.90;;;;;;4973951;28;21273;-72
2022/03/06 07:24:15;;;;;;;0.10;0.10;;;0.80;99.90;;;;;;4973860;28;20132;-72
2022/03/06 07:26:41;;;;;;;0.10;0.10;;;0.80;99.90;;;;;;4991368;28;22000;-72
2022/03/06 07:29:07;;;;;;;0.10;0.10;;;0.80;99.90;;;;;;4997063;28;20487;-72
2022/03/06 07:31:33;;;;;;;0.17;0.15;;;0.80;99.90;;;;;;4992035;28;20038;-72
2022/03/06 07:33:59;;;;;;;0.10;0.10;;;0.80;99.90;;;;;;4993441;28;20073;-72
2022/03/06 07:36:25;;;;;;;0.65;0.30;;;0.80;99.90;;;;;;4972008;28;20140;-72
2022/03/06 07:38:50;;;;;;;0.10;0.10;;;0.80;99.90;;;;;;4988729;28;20507;-72
2022/03/06 07:41:17;;;;;;;0.10;0.10;;;0.80;99.90;;;;;;4975012;28;20060;-72
2022/03/06 07:43:43;;;;;;;0.20;0.10;;;0.80;99.90;;;;;;4974154;28;20060;-72
2022/03/06 07:46:09;;;;;;;0.30;0.13;;;0.90;99.90;;;;;;4994218;28;20080;-72
2022/03/06 07:48:34;;;;;;;0.20;0.20;;;0.90;99.90;;;;;;4994144;28;20129;-72
2022/03/06 07:51:00;;;;;;;0.30;0.10;;;0.90;99.90;;;;;;4991398;28;20041;-72
2022/03/06 07:53:26;;;;;;;0.00;0.00;;;1.00;99.90;;;;;;4996534;28;20760;-72
2022/03/06 07:55:52;;;;;;;0.10;0.10;;;1.00;99.90;;;;;;4995044;28;20088;-72
2022/03/06 07:58:18;;;;;;;0.10;0.10;;;1.00;99.90;;;;;;4977496;28;20040;-72
2022/03/06 08:00:43;;;;;;;0.13;0.13;;;1.00;99.90;;;;;;4994234;28;20041;-75
2022/03/06 08:03:09;;;;;;;0.10;0.10;;;1.10;99.90;;;;;;4974667;28;20029;-73
2022/03/06 08:05:35;;;;;;;0.28;0.28;;;1.10;99.90;;;;;;4994556;28;20050;-72
2022/03/06 08:08:00;;;;;;;0.10;0.10;;;1.20;99.90;;;;;;4990085;28;20108;-72
2022/03/06 08:10:26;;;;;;;0.00;0.00;;;1.20;99.90;;;;;;4984216;28;20049;-72
2022/03/06 08:12:51;;;;;;;0.03;0.03;;;1.30;99.90;;;;;;4982391;28;20042;-72
2022/03/06 08:15:17;;;;;;;0.05;0.05;;;1.30;99.90;;;;;;4984139;28;20124;-72
2022/03/06 08:17:43;;;;;;;0.32;0.17;;;1.40;99.90;;;;;;4981046;28;20432;-72
2022/03/06 08:20:09;;;;;;;0.38;0.30;;;1.40;99.90;;;;;;4981007;28;20132;-72
2022/03/06 08:22:35;;;;;;;0.38;0.13;;;1.50;99.90;;;;;;4980285;28;20053;-72
2022/03/06 08:25:02;;;;;;;0.40;0.22;;;1.50;99.90;;;;;;4979631;28;20045;-72
2022/03/06 08:27:27;;;;;;;0.10;0.10;;;1.60;99.90;;;;;;4969643;28;20050;-72
2022/03/06 08:29:53;;;;;;;0.00;0.00;;;1.60;99.90;;;;;;4981225;28;20484;-72
2022/03/06 08:32:18;;;;;;;0.10;0.10;;;1.60;99.90;;;;;;4982657;28;20641;-72
2022/03/06 08:34:44;;;;;;;0.10;0.10;;;1.60;99.20;;;;;;4986846;28;20409;-72
2022/03/06 08:37:10;;;;;;;0.70;0.35;;;1.70;98.80;;;;;;4983735;28;20515;-72
2022/03/06 08:39:36;;;;;;;0.17;0.17;;;1.70;99.00;;;;;;4985200;28;20133;-72
2022/03/06 08:42:02;;;;;;;0.13;0.10;;;1.80;98.80;;;;;;4986721;28;20158;-72
2022/03/06 08:44:28;;;;;;;0.10;0.10;;;1.80;99.70;;;;;;4989000;28;20030;-72
2022/03/06 08:46:54;;;;;;;0.47;0.30;;;1.80;99.70;;;;;;4969561;28;20547;-72
2022/03/06 08:49:20;;;;;;;0.20;0.20;;;1.80;97.90;;;;;;4994495;28;20045;-72
2022/03/06 08:51:46;;;;;;;0.28;0.28;;;1.80;99.10;;;;;;4991874;28;20671;-73
2022/03/06 08:54:12;;;;;;;0.20;0.20;;;1.90;97.40;;;;;;4980349;28;20041;-72
2022/03/06 08:56:37;;;;;;;0.10;0.10;;;1.90;97.80;;;;;;4973978;28;20580;-72
2022/03/06 08:59:03;;;;;;;0.28;0.28;;;1.90;95.80;;;;;;4970786;28;20125;-72
2022/03/06 09:01:28;;;;;;;0.30;0.22;;;2.00;96.60;;;;;;4991033;28;20483;-72
2022/03/06 09:03:54;;;;;;;0.10;0.10;;;2.00;95.00;;;;;;4991774;28;20030;-72
2022/03/06 09:06:19;;;;;;;0.05;0.05;;;2.00;96.80;;;;;;4993217;28;20050;-72
2022/03/06 09:08:45;;;;;;;0.00;0.00;;;2.10;96.30;;;;;;4987610;28;20045;-72
2022/03/06 09:11:11;;;;;;;0.00;0.00;;;2.10;96.50;;;;;;4989209;28;20522;-72
2022/03/06 09:13:36;;;;;;;0.45;0.32;;;2.10;97.50;;;;;;4993020;28;20429;-72
2022/03/06 09:16:04;;;;;;;0.88;0.20;;;2.20;96.60;;;;;;4968209;28;20120;-72
2022/03/06 09:18:30;;;;;;;0.10;0.10;;;2.20;96.20;;;;;;4969975;28;20034;-72
2022/03/06 09:20:56;;;;;;;0.20;0.20;;;2.20;94.00;;;;;;4985888;28;20036;-72
2022/03/06 09:23:21;;;;;;;0.40;0.40;;;2.20;93.70;;;;;;4984725;28;20407;-72
2022/03/06 09:25:47;;;;;;;0.20;0.20;;;2.30;95.80;;;;;;4988740;28;20046;-72
2022/03/06 09:28:13;;;;;;;0.35;0.22;;;2.30;95.00;;;;;;4969394;28;20176;-72
2022/03/06 09:30:39;;;;;;;0.60;0.15;;;2.30;94.60;;;;;;4978727;28;20117;-71
2022/03/06 09:33:04;;;;;;;0.20;0.10;;;2.40;93.20;;;;;;4981761;28;20049;-72
2022/03/06 09:35:30;;;;;;;0.10;0.10;;;2.40;91.20;;;;;;4964656;28;20452;-71
2022/03/06 09:37:56;;;;;;;0.00;0.00;;;2.40;92.80;;;;;;4983113;28;20038;-72
2022/03/06 09:40:22;;;;;;;0.20;0.20;;;2.40;89.60;;;;;;4979961;28;20034;-71
2022/03/06 09:42:48;;;;;;;0.25;0.25;;;2.40;90.80;;;;;;4984864;28;20046;-71
2022/03/06 09:45:14;;;;;;;0.20;0.20;;;2.50;91.40;;;;;;5006354;28;20053;-73
2022/03/06 09:47:41;;;;;;;0.05;0.05;;;2.50;92.70;;;;;;4981701;28;20537;-71
2022/03/06 09:50:09;;;;;;;0.85;0.30;;;2.50;91.10;;;;;;4984663;28;20041;-71
2022/03/06 09:52:34;;;;;;;0.45;0.45;;;2.50;91.80;;;;;;4970082;28;20482;-71
2022/03/06 09:55:00;;;;;;;0.10;0.05;;;2.60;92.50;;;;;;4969147;28;20042;-72
2022/03/06 09:57:26;;;;;;;0.68;0.30;;;2.60;90.00;;;;;;4990248;28;20038;-72
2022/03/06 09:59:52;;;;;;;0.10;0.10;;;2.60;89.10;;;;;;4971293;28;20046;-72
2022/03/06 10:02:19;;;;;;;0.08;0.08;;;2.60;91.60;;;;;;4980421;28;20072;-72
2022/03/06 10:04:46;;;;;;;0.05;0.05;;;2.60;91.50;;;;;;4982176;28;20564;-72
2022/03/06 10:07:17;;;;;;;1.77;0.47;;;2.60;90.60;;;;;;4984312;28;20042;-72
2022/03/06 10:09:51;;;;;;;0.10;0.10;;;2.70;90.60;;;;;;4968480;28;20048;-72
2022/03/06 10:12:23;;;;;;;0.10;0.10;;;2.70;90.00;;;;;;4980485;28;20046;-72
2022/03/06 10:14:51;;;;;;;0.57;0.52;;;2.70;90.10;;;;;;4962041;28;20038;-72
2022/03/06 10:17:21;;;;;;;0.10;0.10;;;2.80;90.60;;;;;;4968126;28;20700;-72
2022/03/06 10:19:49;;;;;;;0.22;0.10;;;2.80;91.30;;;;;;4969242;28;21328;-72
2022/03/06 10:22:14;;;;;;;0.10;0.10;;;2.80;90.70;;;;;;4985639;28;20459;-72
2022/03/06 10:24:48;;;;;;;0.30;0.30;;;2.90;85.10;;;;;;4968895;28;21047;-72
2022/03/06 10:27:14;;;;;;;0.00;0.00;;;2.90;90.10;;;;;;4991182;28;20042;-72
2022/03/06 10:29:39;;;;;;;0.10;0.10;;;3.00;85.30;;;;;;4989117;28;20108;-71
2022/03/06 10:32:07;;;;;;;0.20;0.20;;;3.00;90.30;;;;;;4972394;28;20052;-71
2022/03/06 10:34:37;;;;;;;0.10;0.10;;;3.00;90.30;;;;;;4983947;28;20057;-71
2022/03/06 10:37:04;;;;;;;0.00;0.00;;;3.10;89.40;;;;;;4975597;28;20042;-72
2022/03/06 10:39:41;;;;;;;0.60;0.20;;;3.10;91.30;;;;;;4967867;28;20089;-72
2022/03/06 10:42:09;;;;;;;0.00;0.00;;;3.10;84.80;;;;;;4984341;28;20121;-72
2022/03/06 10:44:46;;;;;;;0.20;0.20;;;3.20;79.60;;;;;;4962732;28;20117;-72
2022/03/06 10:47:12;;;;;;;0.68;0.50;;;3.20;85.00;;;;;;4978395;28;20045;-71
2022/03/06 10:49:38;;;;;;;0.13;0.10;;;3.20;85.60;;;;;;4985421;28;20041;-71
2022/03/06 10:52:19;;;;;;;0.22;0.20;;;3.20;85.70;;;;;;4984769;28;20077;-72
2022/03/06 10:54:56;;;;;;;0.10;0.10;;;3.20;85.70;;;;;;4981836;28;20042;-71
2022/03/06 10:57:23;;;;;;;0.30;0.20;;;3.20;86.10;;;;;;4982207;28;20586;-72
2022/03/06 10:59:49;;;;;;;0.10;0.10;;;3.20;86.40;;;;;;4985085;28;20030;-72
2022/03/06 11:02:16;;;;;;;0.28;0.10;;;3.30;88.50;;;;;;4981502;28;20050;-72
2022/03/06 11:04:45;;;;;;;1.55;0.20;;;3.30;88.70;;;;;;4965808;28;20045;-71
2022/03/06 11:07:12;;;;;;;1.75;0.52;;;3.40;88.00;;;;;;4966593;28;20046;-72
2022/03/06 11:09:38;;;;;;;0.15;0.10;;;3.40;87.60;;;;;;4976333;28;20488;-74
2022/03/06 11:12:04;;;;;;;0.30;0.30;;;3.60;88.10;;;;;;4980887;28;20068;-71
2022/03/06 11:14:32;;;;;;;0.17;0.17;;;3.50;80.20;;;;;;4967974;28;20488;-71
2022/03/06 11:16:58;;;;;;;0.10;0.10;;;3.50;85.00;;;;;;4977745;28;20522;-71
2022/03/06 11:19:25;;;;;;;0.00;0.00;;;3.50;86.50;;;;;;5000227;28;20388;-72
2022/03/06 11:22:00;;;;;;;0.10;0.10;;;3.50;83.70;;;;;;4984401;28;20067;-71
2022/03/06 11:24:28;;;;;;;0.20;0.20;;;3.50;89.50;;;;;;4989937;28;20173;-72
2022/03/06 11:27:27;;;;;;;0.10;0.03;;;3.60;90.00;;;;;;4972039;28;20046;-72
2022/03/06 11:30:10;;;;;;;0.05;0.05;;;3.60;86.20;;;;;;4999519;28;20042;-71
2022/03/06 11:32:37;;;;;;;0.20;0.20;;;3.70;86.90;;;;;;4983138;28;20087;-71
2022/03/06 11:35:15;;;;;;;0.20;0.20;;;3.70;88.80;;;;;;4986394;28;20132;-71
2022/03/06 11:37:46;;;;;;;0.40;0.40;;;3.70;85.10;;;;;;4971962;28;20030;-71
2022/03/06 11:40:45;;;;;;;0.10;0.10;;;3.70;86.00;;;;;;4984881;28;20088;-71
2022/03/06 11:43:30;;;;;;;0.13;0.13;;;3.80;82.20;;;;;;4967880;28;20565;-72
2022/03/06 11:46:02;;;;;;;0.10;0.10;;;3.80;82.90;;;;;;4971832;28;20483;-71
2022/03/06 11:48:34;;;;;;;0.10;0.10;;;3.80;85.30;;;;;;4980913;28;20447;-71
2022/03/06 11:51:18;;;;;;;0.68;0.50;;;3.80;86.80;;;;;;4970595;28;20046;-71
2022/03/06 11:54:10;;;;;;;0.05;0.05;;;3.80;86.60;;;;;;4966422;28;20081;-71
2022/03/06 11:56:37;;;;;;;0.60;0.35;;;3.90;81.10;;;;;;4969196;28;20030;-72
2022/03/06 11:59:11;;;;;;;0.17;0.10;;;3.90;85.00;;;;;;4971341;28;20821;-72
2022/03/06 12:01:48;;;;;;;0.10;0.10;;;3.90;85.90;;;;;;4975936;28;20049;-71
2022/03/06 12:04:23;;;;;;;0.00;0.00;;;4.00;86.50;;;;;;4980700;28;20068;-71
2022/03/06 12:06:55;;;;;;;;;;;4.00;86.60;;;;;;4982672;28;20508;-72
2022/03/06 12:09:26;;;;;;;1.10;0.28;;;4.00;84.50;;;;;;4981456;28;20651;-71
2022/03/06 12:11:54;;;;;;;0.00;0.00;;;4.00;83.30;;;;;;4971171;28;20574;-72
2022/03/06 12:14:24;;;;;;;1.40;0.40;;;4.00;84.40;;;;;;4984577;28;20046;-72
2022/03/06 12:17:06;;;;;;;0.30;0.20;;;4.00;80.00;;;;;;4972983;28;20072;-72
2022/03/06 12:19:40;;;;;;;0.30;0.30;;;4.00;84.30;;;;;;4976642;28;20034;-72
2022/03/06 12:22:14;;;;;;;0.05;0.05;;;4.10;86.50;;;;;;4994381;28;20046;-72
2022/03/06 12:24:44;;;;;;;0.05;0.05;;;4.10;86.80;;;;;;4993432;28;20496;-72
2022/03/06 12:27:11;;;;;;;2.85;0.50;;;4.20;89.10;;;;;;4978137;28;20136;-72
2022/03/06 12:29:46;;;;;;;0.00;0.00;;;4.20;84.30;;;;;;4993305;28;20042;-72
2022/03/06 12:32:27;;;;;;;0.10;0.10;;;4.20;88.70;;;;;;4975025;28;20042;-73
2022/03/06 12:35:16;;;;;;;0.10;0.10;;;4.30;84.50;;;;;;4976692;28;20050;-72
2022/03/06 12:37:59;;;;;;;0.30;0.15;;;4.30;86.00;;;;;;4994018;28;20069;-72
2022/03/06 12:40:27;;;;;;;0.43;0.25;;;4.40;85.60;;;;;;4977282;28;20073;-73
2022/03/06 12:43:02;;;;;;;0.20;0.20;;;4.40;87.60;;;;;;4993655;28;20054;-72
2022/03/06 12:45:28;;;;;;;0.20;0.10;;;4.40;87.20;;;;;;4993815;28;20538;-72
2022/03/06 12:47:54;;;;;;;0.30;0.20;;;4.40;85.80;;;;;;4993008;28;20049;-72
2022/03/06 12:50:21;;;;;;;0.82;0.47;;;4.50;89.60;;;;;;4974646;28;20037;-73
2022/03/06 12:52:48;;;;;;;0.20;0.20;;;4.50;87.50;;;;;;4977608;28;20038;-72
2022/03/06 12:55:17;;;;;;;0.30;0.30;;;4.60;87.60;;;;;;4996886;28;20048;-73
2022/03/06 12:57:44;;;;;;;0.47;0.20;;;4.60;87.10;;;;;;4986234;28;20074;-72